sensor_id;sensor_type;location;lat;lon;timestamp;P1;durP1;ratioP1;P2;durP2;ratioP2
24891;SDS011;12954;50.688;10.908;2022-08-04T00:00:38;8.23;;;2.47;;
24891;SDS011;12954;50.688;10.908;2022-08-04T00:03:12;8.45;;;3.17;;
24891;SDS011;12954;50.688;10.908;2022-08-04T00:05:52;5.38;;;2.45;;
24891;SDS011;12954;50.688;10.908;2022-08-04T00:08:40;6.07;;;2.20;;
24891;SDS011;12954;50.688;10.908;2022-08-04T00:11:15;12.80;;;3.50;;
24891;SDS011;12954;50.688;10.908;2022-08-04T00:13:49;12.10;;;2.95;;
24891;SDS011;12954;50.688;10.908;2022-08-04T00:16:29;8.05;;;2.60;;
24891;SDS011;12954;50.688;10.908;2022-08-04T00:19:04;5.93;;;2.60;;
24891;SDS011;12954;50.688;10.908;2022-08-04T00:21:38;11.45;;;2.90;;
24891;SDS011;12954;50.688;10.908;2022-08-04T00:24:13;5.65;;;2.50;;
24891;SDS011;12954;50.688;10.908;2022-08-04T00:26:45;3.38;;;2.58;;
24891;SDS011;12954;50.688;10.908;2022-08-04T00:29:14;3.50;;;2.10;;
24891;SDS011;12954;50.688;10.908;2022-08-04T00:31:42;3.75;;;2.40;;
24891;SDS011;12954;50.688;10.908;2022-08-04T00:34:23;3.25;;;2.20;;
24891;SDS011;12954;50.688;10.908;2022-08-04T00:36:53;6.43;;;2.20;;
24891;SDS011;12954;50.688;10.908;2022-08-04T00:39:22;4.22;;;2.60;;
24891;SDS011;12954;50.688;10.908;2022-08-04T00:41:59;6.53;;;2.75;;
24891;SDS011;12954;50.688;10.908;2022-08-04T00:44:47;7.63;;;2.80;;
24891;SDS011;12954;50.688;10.908;2022-08-04T00:47:31;7.55;;;2.63;;
24891;SDS011;12954;50.688;10.908;2022-08-04T00:50:14;10.63;;;3.25;;
24891;SDS011;12954;50.688;10.908;2022-08-04T00:52:55;10.13;;;2.97;;
24891;SDS011;12954;50.688;10.908;2022-08-04T00:55:41;7.35;;;3.13;;
24891;SDS011;12954;50.688;10.908;2022-08-04T00:58:28;7.53;;;3.50;;
24891;SDS011;12954;50.688;10.908;2022-08-04T01:01:11;17.48;;;11.45;;
24891;SDS011;12954;50.688;10.908;2022-08-04T01:03:49;12.70;;;7.70;;
24891;SDS011;12954;50.688;10.908;2022-08-04T01:06:36;4.93;;;3.53;;
24891;SDS011;12954;50.688;10.908;2022-08-04T01:09:25;3.08;;;2.78;;
24891;SDS011;12954;50.688;10.908;2022-08-04T01:12:05;8.05;;;3.03;;
24891;SDS011;12954;50.688;10.908;2022-08-04T01:14:53;5.50;;;2.97;;
24891;SDS011;12954;50.688;10.908;2022-08-04T01:17:34;4.05;;;2.80;;
24891;SDS011;12954;50.688;10.908;2022-08-04T01:20:10;3.40;;;2.80;;
24891;SDS011;12954;50.688;10.908;2022-08-04T01:22:59;3.60;;;2.88;;
24891;SDS011;12954;50.688;10.908;2022-08-04T01:26:12;7.72;;;3.10;;
24891;SDS011;12954;50.688;10.908;2022-08-04T01:29:15;8.45;;;3.05;;
24891;SDS011;12954;50.688;10.908;2022-08-04T01:31:52;8.85;;;3.00;;
24891;SDS011;12954;50.688;10.908;2022-08-04T01:34:35;10.35;;;3.08;;
24891;SDS011;12954;50.688;10.908;2022-08-04T01:37:14;8.27;;;3.40;;
24891;SDS011;12954;50.688;10.908;2022-08-04T01:39:57;6.45;;;2.90;;
24891;SDS011;12954;50.688;10.908;2022-08-04T01:42:30;6.80;;;3.60;;
24891;SDS011;12954;50.688;10.908;2022-08-04T01:45:02;6.35;;;2.70;;
24891;SDS011;12954;50.688;10.908;2022-08-04T01:47:33;4.25;;;3.00;;
24891;SDS011;12954;50.688;10.908;2022-08-04T01:50:05;9.30;;;6.38;;
24891;SDS011;12954;50.688;10.908;2022-08-04T01:52:35;16.02;;;8.73;;
24891;SDS011;12954;50.688;10.908;2022-08-04T01:55:05;9.73;;;3.72;;
24891;SDS011;12954;50.688;10.908;2022-08-04T01:57:36;9.13;;;4.93;;
24891;SDS011;12954;50.688;10.908;2022-08-04T02:00:10;5.18;;;3.65;;
24891;SDS011;12954;50.688;10.908;2022-08-04T02:02:41;9.50;;;3.22;;
24891;SDS011;12954;50.688;10.908;2022-08-04T02:05:11;5.70;;;2.90;;
24891;SDS011;12954;50.688;10.908;2022-08-04T02:07:46;3.38;;;3.03;;
24891;SDS011;12954;50.688;10.908;2022-08-04T02:10:27;5.90;;;2.72;;
24891;SDS011;12954;50.688;10.908;2022-08-04T02:13:01;6.80;;;2.78;;
24891;SDS011;12954;50.688;10.908;2022-08-04T02:15:41;8.18;;;2.70;;
24891;SDS011;12954;50.688;10.908;2022-08-04T02:18:18;4.35;;;2.75;;
24891;SDS011;12954;50.688;10.908;2022-08-04T02:20:54;7.45;;;2.97;;
24891;SDS011;12954;50.688;10.908;2022-08-04T02:23:28;6.47;;;2.70;;
24891;SDS011;12954;50.688;10.908;2022-08-04T02:26:02;2.65;;;2.30;;
24891;SDS011;12954;50.688;10.908;2022-08-04T02:28:39;5.75;;;2.67;;
24891;SDS011;12954;50.688;10.908;2022-08-04T02:31:19;4.30;;;2.40;;
24891;SDS011;12954;50.688;10.908;2022-08-04T02:33:58;3.22;;;2.83;;
24891;SDS011;12954;50.688;10.908;2022-08-04T02:36:35;5.10;;;2.75;;
24891;SDS011;12954;50.688;10.908;2022-08-04T02:39:06;5.05;;;1.95;;
24891;SDS011;12954;50.688;10.908;2022-08-04T02:41:36;2.20;;;2.00;;
24891;SDS011;12954;50.688;10.908;2022-08-04T02:44:07;3.17;;;2.25;;
24891;SDS011;12954;50.688;10.908;2022-08-04T02:46:40;5.30;;;2.17;;
24891;SDS011;12954;50.688;10.908;2022-08-04T02:49:10;6.07;;;1.60;;
24891;SDS011;12954;50.688;10.908;2022-08-04T02:51:40;3.40;;;1.23;;
24891;SDS011;12954;50.688;10.908;2022-08-04T02:54:10;2.20;;;1.20;;
24891;SDS011;12954;50.688;10.908;2022-08-04T02:56:59;2.05;;;1.25;;
24891;SDS011;12954;50.688;10.908;2022-08-04T02:59:36;2.97;;;1.00;;
24891;SDS011;12954;50.688;10.908;2022-08-04T03:02:26;1.67;;;1.30;;
24891;SDS011;12954;50.688;10.908;2022-08-04T03:05:02;1.13;;;1.02;;
24891;SDS011;12954;50.688;10.908;2022-08-04T03:10:56;1.83;;;1.08;;
24891;SDS011;12954;50.688;10.908;2022-08-04T03:13:38;3.38;;;1.42;;
24891;SDS011;12954;50.688;10.908;2022-08-04T03:19:57;2.33;;;1.25;;
24891;SDS011;12954;50.688;10.908;2022-08-04T03:29:01;1.23;;;1.10;;
24891;SDS011;12954;50.688;10.908;2022-08-04T03:35:35;4.57;;;1.45;;
24891;SDS011;12954;50.688;10.908;2022-08-04T03:41:49;4.20;;;1.30;;
24891;SDS011;12954;50.688;10.908;2022-08-04T03:45:02;3.97;;;1.20;;
24891;SDS011;12954;50.688;10.908;2022-08-04T03:51:14;3.97;;;1.08;;
24891;SDS011;12954;50.688;10.908;2022-08-04T03:57:22;4.45;;;1.50;;
24891;SDS011;12954;50.688;10.908;2022-08-04T04:00:12;8.80;;;1.33;;
24891;SDS011;12954;50.688;10.908;2022-08-04T04:03:08;1.17;;;1.00;;
24891;SDS011;12954;50.688;10.908;2022-08-04T04:12:46;1.50;;;1.00;;
24891;SDS011;12954;50.688;10.908;2022-08-04T04:15:46;2.47;;;1.25;;
24891;SDS011;12954;50.688;10.908;2022-08-04T04:18:37;1.80;;;1.23;;
24891;SDS011;12954;50.688;10.908;2022-08-04T04:21:30;2.03;;;1.30;;
24891;SDS011;12954;50.688;10.908;2022-08-04T04:24:32;2.42;;;1.15;;
24891;SDS011;12954;50.688;10.908;2022-08-04T04:27:14;1.25;;;1.08;;
24891;SDS011;12954;50.688;10.908;2022-08-04T04:29:59;1.75;;;1.50;;
24891;SDS011;12954;50.688;10.908;2022-08-04T04:32:50;1.58;;;1.40;;
24891;SDS011;12954;50.688;10.908;2022-08-04T04:35:30;1.30;;;1.20;;
24891;SDS011;12954;50.688;10.908;2022-08-04T04:38:12;2.05;;;1.15;;
24891;SDS011;12954;50.688;10.908;2022-08-04T04:41:01;2.30;;;1.30;;
24891;SDS011;12954;50.688;10.908;2022-08-04T04:43:43;1.70;;;1.20;;
24891;SDS011;12954;50.688;10.908;2022-08-04T04:46:28;2.78;;;1.55;;
24891;SDS011;12954;50.688;10.908;2022-08-04T04:49:07;1.63;;;1.00;;
24891;SDS011;12954;50.688;10.908;2022-08-04T04:51:48;2.58;;;1.20;;
24891;SDS011;12954;50.688;10.908;2022-08-04T04:54:25;2.33;;;1.60;;
24891;SDS011;12954;50.688;10.908;2022-08-04T04:57:03;3.50;;;1.20;;
24891;SDS011;12954;50.688;10.908;2022-08-04T04:59:38;1.10;;;1.00;;
24891;SDS011;12954;50.688;10.908;2022-08-04T05:05:14;1.38;;;1.17;;
24891;SDS011;12954;50.688;10.908;2022-08-04T05:08:09;1.60;;;1.20;;
24891;SDS011;12954;50.688;10.908;2022-08-04T05:14:17;2.75;;;1.00;;
24891;SDS011;12954;50.688;10.908;2022-08-04T05:17:09;1.20;;;0.98;;
24891;SDS011;12954;50.688;10.908;2022-08-04T05:19:47;4.88;;;1.10;;
24891;SDS011;12954;50.688;10.908;2022-08-04T05:22:24;3.40;;;1.13;;
24891;SDS011;12954;50.688;10.908;2022-08-04T05:24:59;2.47;;;0.95;;
24891;SDS011;12954;50.688;10.908;2022-08-04T05:27:34;2.35;;;1.10;;
24891;SDS011;12954;50.688;10.908;2022-08-04T05:30:08;1.70;;;1.20;;
24891;SDS011;12954;50.688;10.908;2022-08-04T05:32:44;3.70;;;1.20;;
24891;SDS011;12954;50.688;10.908;2022-08-04T05:35:21;3.28;;;1.13;;
24891;SDS011;12954;50.688;10.908;2022-08-04T05:38:18;2.05;;;1.17;;
24891;SDS011;12954;50.688;10.908;2022-08-04T05:40:49;2.58;;;1.10;;
24891;SDS011;12954;50.688;10.908;2022-08-04T05:43:19;2.20;;;1.00;;
24891;SDS011;12954;50.688;10.908;2022-08-04T05:45:50;1.30;;;0.95;;
24891;SDS011;12954;50.688;10.908;2022-08-04T05:48:23;1.83;;;1.63;;
24891;SDS011;12954;50.688;10.908;2022-08-04T05:50:53;6.60;;;1.92;;
24891;SDS011;12954;50.688;10.908;2022-08-04T05:53:26;5.38;;;1.08;;
24891;SDS011;12954;50.688;10.908;2022-08-04T05:55:56;2.53;;;1.30;;
24891;SDS011;12954;50.688;10.908;2022-08-04T05:58:28;3.53;;;1.40;;
24891;SDS011;12954;50.688;10.908;2022-08-04T06:00:58;1.65;;;1.25;;
24891;SDS011;12954;50.688;10.908;2022-08-04T06:03:28;1.88;;;1.25;;
24891;SDS011;12954;50.688;10.908;2022-08-04T06:05:58;2.78;;;1.50;;
24891;SDS011;12954;50.688;10.908;2022-08-04T06:08:28;1.92;;;1.30;;
24891;SDS011;12954;50.688;10.908;2022-08-04T06:10:58;1.63;;;1.08;;
24891;SDS011;12954;50.688;10.908;2022-08-04T06:13:32;3.30;;;1.13;;
24891;SDS011;12954;50.688;10.908;2022-08-04T06:16:16;3.60;;;1.27;;
24891;SDS011;12954;50.688;10.908;2022-08-04T06:18:57;1.90;;;1.27;;
24891;SDS011;12954;50.688;10.908;2022-08-04T06:21:48;2.53;;;1.20;;
24891;SDS011;12954;50.688;10.908;2022-08-04T06:24:19;3.70;;;1.15;;
24891;SDS011;12954;50.688;10.908;2022-08-04T06:26:52;1.88;;;1.50;;
24891;SDS011;12954;50.688;10.908;2022-08-04T06:29:22;4.55;;;0.82;;
24891;SDS011;12954;50.688;10.908;2022-08-04T06:32:01;0.98;;;0.98;;
24891;SDS011;12954;50.688;10.908;2022-08-04T06:35:00;1.15;;;0.98;;
24891;SDS011;12954;50.688;10.908;2022-08-04T06:37:31;2.22;;;1.08;;
24891;SDS011;12954;50.688;10.908;2022-08-04T06:40:08;2.28;;;1.00;;
24891;SDS011;12954;50.688;10.908;2022-08-04T06:42:57;1.27;;;1.00;;
24891;SDS011;12954;50.688;10.908;2022-08-04T06:45:27;1.17;;;1.08;;
24891;SDS011;12954;50.688;10.908;2022-08-04T06:48:01;3.40;;;1.40;;
24891;SDS011;12954;50.688;10.908;2022-08-04T06:50:32;2.17;;;1.50;;
24891;SDS011;12954;50.688;10.908;2022-08-04T06:53:23;6.50;;;1.17;;
24891;SDS011;12954;50.688;10.908;2022-08-04T06:55:52;2.03;;;0.88;;
24891;SDS011;12954;50.688;10.908;2022-08-04T06:58:23;1.20;;;1.10;;
24891;SDS011;12954;50.688;10.908;2022-08-04T07:00:52;1.52;;;0.80;;
24891;SDS011;12954;50.688;10.908;2022-08-04T07:03:29;1.70;;;1.00;;
24891;SDS011;12954;50.688;10.908;2022-08-04T07:05:58;2.53;;;1.27;;
24891;SDS011;12954;50.688;10.908;2022-08-04T07:08:40;3.65;;;1.00;;
24891;SDS011;12954;50.688;10.908;2022-08-04T07:11:10;2.08;;;1.10;;
24891;SDS011;12954;50.688;10.908;2022-08-04T07:13:39;2.45;;;1.00;;
24891;SDS011;12954;50.688;10.908;2022-08-04T07:16:12;1.88;;;1.10;;
24891;SDS011;12954;50.688;10.908;2022-08-04T07:18:43;1.40;;;1.00;;
24891;SDS011;12954;50.688;10.908;2022-08-04T07:21:17;1.33;;;0.90;;
24891;SDS011;12954;50.688;10.908;2022-08-04T07:23:50;2.38;;;0.88;;
24891;SDS011;12954;50.688;10.908;2022-08-04T07:26:19;1.20;;;1.10;;
24891;SDS011;12954;50.688;10.908;2022-08-04T07:28:53;1.55;;;1.00;;
24891;SDS011;12954;50.688;10.908;2022-08-04T07:31:23;2.42;;;1.17;;
24891;SDS011;12954;50.688;10.908;2022-08-04T07:34:03;4.72;;;0.98;;
24891;SDS011;12954;50.688;10.908;2022-08-04T07:36:47;3.03;;;1.10;;
24891;SDS011;12954;50.688;10.908;2022-08-04T07:39:20;1.42;;;1.30;;
24891;SDS011;12954;50.688;10.908;2022-08-04T07:41:54;1.33;;;1.20;;
24891;SDS011;12954;50.688;10.908;2022-08-04T07:44:27;2.45;;;0.90;;
24891;SDS011;12954;50.688;10.908;2022-08-04T07:46:56;2.20;;;0.88;;
24891;SDS011;12954;50.688;10.908;2022-08-04T07:49:27;1.58;;;0.90;;
24891;SDS011;12954;50.688;10.908;2022-08-04T07:52:16;2.08;;;0.98;;
24891;SDS011;12954;50.688;10.908;2022-08-04T07:54:45;1.02;;;0.95;;
24891;SDS011;12954;50.688;10.908;2022-08-04T07:57:15;1.83;;;1.10;;
24891;SDS011;12954;50.688;10.908;2022-08-04T08:00:06;3.08;;;1.85;;
24891;SDS011;12954;50.688;10.908;2022-08-04T08:02:35;1.50;;;1.38;;
24891;SDS011;12954;50.688;10.908;2022-08-04T08:05:08;1.95;;;0.93;;
24891;SDS011;12954;50.688;10.908;2022-08-04T08:07:39;1.65;;;1.20;;
24891;SDS011;12954;50.688;10.908;2022-08-04T08:10:17;3.47;;;1.20;;
24891;SDS011;12954;50.688;10.908;2022-08-04T08:12:46;3.35;;;1.10;;
24891;SDS011;12954;50.688;10.908;2022-08-04T08:15:17;3.45;;;1.13;;
24891;SDS011;12954;50.688;10.908;2022-08-04T08:17:47;1.90;;;1.05;;
24891;SDS011;12954;50.688;10.908;2022-08-04T08:20:27;1.02;;;0.90;;
24891;SDS011;12954;50.688;10.908;2022-08-04T08:22:57;4.40;;;0.98;;
24891;SDS011;12954;50.688;10.908;2022-08-04T08:25:26;3.25;;;1.30;;
24891;SDS011;12954;50.688;10.908;2022-08-04T08:27:56;1.50;;;0.90;;
24891;SDS011;12954;50.688;10.908;2022-08-04T08:30:25;2.25;;;1.20;;
24891;SDS011;12954;50.688;10.908;2022-08-04T08:32:58;3.50;;;1.27;;
24891;SDS011;12954;50.688;10.908;2022-08-04T08:35:34;1.58;;;0.73;;
24891;SDS011;12954;50.688;10.908;2022-08-04T08:38:23;1.92;;;0.95;;
24891;SDS011;12954;50.688;10.908;2022-08-04T08:47:26;1.23;;;0.90;;
24891;SDS011;12954;50.688;10.908;2022-08-04T08:50:44;1.40;;;0.93;;
24891;SDS011;12954;50.688;10.908;2022-08-04T08:56:25;1.75;;;1.20;;
24891;SDS011;12954;50.688;10.908;2022-08-04T08:59:07;1.00;;;0.90;;
24891;SDS011;12954;50.688;10.908;2022-08-04T09:02:10;1.67;;;0.93;;
24891;SDS011;12954;50.688;10.908;2022-08-04T09:08:03;1.25;;;1.10;;
24891;SDS011;12954;50.688;10.908;2022-08-04T09:10:47;2.03;;;1.10;;
24891;SDS011;12954;50.688;10.908;2022-08-04T09:13:20;1.23;;;0.95;;
24891;SDS011;12954;50.688;10.908;2022-08-04T09:15:56;2.92;;;2.28;;
24891;SDS011;12954;50.688;10.908;2022-08-04T09:18:35;1.38;;;1.13;;
24891;SDS011;12954;50.688;10.908;2022-08-04T09:21:10;2.22;;;1.65;;
24891;SDS011;12954;50.688;10.908;2022-08-04T09:23:48;8.13;;;5.05;;
24891;SDS011;12954;50.688;10.908;2022-08-04T09:26:28;3.25;;;1.00;;
24891;SDS011;12954;50.688;10.908;2022-08-04T09:29:02;2.10;;;1.65;;
24891;SDS011;12954;50.688;10.908;2022-08-04T09:31:40;1.83;;;0.98;;
24891;SDS011;12954;50.688;10.908;2022-08-04T09:34:36;1.30;;;0.95;;
24891;SDS011;12954;50.688;10.908;2022-08-04T09:37:14;1.50;;;1.00;;
24891;SDS011;12954;50.688;10.908;2022-08-04T09:39:55;2.78;;;1.00;;
24891;SDS011;12954;50.688;10.908;2022-08-04T09:42:33;2.10;;;1.00;;
24891;SDS011;12954;50.688;10.908;2022-08-04T09:45:10;1.30;;;1.20;;
24891;SDS011;12954;50.688;10.908;2022-08-04T09:48:05;1.80;;;0.98;;
24891;SDS011;12954;50.688;10.908;2022-08-04T09:50:39;2.88;;;1.00;;
24891;SDS011;12954;50.688;10.908;2022-08-04T09:53:19;1.58;;;1.00;;
24891;SDS011;12954;50.688;10.908;2022-08-04T09:56:02;3.63;;;1.00;;
24891;SDS011;12954;50.688;10.908;2022-08-04T09:58:39;2.65;;;1.30;;
24891;SDS011;12954;50.688;10.908;2022-08-04T10:01:18;2.97;;;1.05;;
24891;SDS011;12954;50.688;10.908;2022-08-04T10:03:50;1.85;;;0.95;;
24891;SDS011;12954;50.688;10.908;2022-08-04T10:06:44;5.40;;;1.35;;
24891;SDS011;12954;50.688;10.908;2022-08-04T10:09:47;1.17;;;1.00;;
24891;SDS011;12954;50.688;10.908;2022-08-04T10:12:30;1.65;;;1.45;;
24891;SDS011;12954;50.688;10.908;2022-08-04T10:15:08;1.40;;;1.10;;
24891;SDS011;12954;50.688;10.908;2022-08-04T10:17:55;4.38;;;1.27;;
24891;SDS011;12954;50.688;10.908;2022-08-04T10:20:41;3.45;;;1.30;;
24891;SDS011;12954;50.688;10.908;2022-08-04T10:23:32;1.25;;;1.02;;
24891;SDS011;12954;50.688;10.908;2022-08-04T10:26:30;1.40;;;1.10;;
24891;SDS011;12954;50.688;10.908;2022-08-04T10:29:06;1.73;;;1.20;;
24891;SDS011;12954;50.688;10.908;2022-08-04T10:31:41;1.70;;;1.38;;
24891;SDS011;12954;50.688;10.908;2022-08-04T10:34:16;1.38;;;1.00;;
24891;SDS011;12954;50.688;10.908;2022-08-04T10:36:50;2.40;;;1.20;;
24891;SDS011;12954;50.688;10.908;2022-08-04T10:39:25;2.25;;;1.55;;
24891;SDS011;12954;50.688;10.908;2022-08-04T10:42:11;4.38;;;1.30;;
24891;SDS011;12954;50.688;10.908;2022-08-04T10:44:54;1.75;;;1.20;;
24891;SDS011;12954;50.688;10.908;2022-08-04T10:47:37;3.05;;;1.33;;
24891;SDS011;12954;50.688;10.908;2022-08-04T10:50:18;4.05;;;1.52;;
24891;SDS011;12954;50.688;10.908;2022-08-04T10:52:54;5.53;;;1.47;;
24891;SDS011;12954;50.688;10.908;2022-08-04T10:55:34;1.90;;;1.20;;
24891;SDS011;12954;50.688;10.908;2022-08-04T10:58:30;2.03;;;1.30;;
24891;SDS011;12954;50.688;10.908;2022-08-04T11:01:16;4.53;;;1.80;;
24891;SDS011;12954;50.688;10.908;2022-08-04T11:04:11;1.23;;;1.05;;
24891;SDS011;12954;50.688;10.908;2022-08-04T11:06:53;2.10;;;1.10;;
24891;SDS011;12954;50.688;10.908;2022-08-04T11:09:23;1.95;;;1.10;;
24891;SDS011;12954;50.688;10.908;2022-08-04T11:11:53;2.35;;;1.15;;
24891;SDS011;12954;50.688;10.908;2022-08-04T11:14:28;1.80;;;1.02;;
24891;SDS011;12954;50.688;10.908;2022-08-04T11:17:06;2.42;;;1.25;;
24891;SDS011;12954;50.688;10.908;2022-08-04T11:19:40;1.67;;;1.42;;
24891;SDS011;12954;50.688;10.908;2022-08-04T11:22:22;3.80;;;1.40;;
24891;SDS011;12954;50.688;10.908;2022-08-04T11:24:53;2.63;;;1.40;;
24891;SDS011;12954;50.688;10.908;2022-08-04T11:27:36;1.30;;;1.20;;
24891;SDS011;12954;50.688;10.908;2022-08-04T11:30:11;1.40;;;1.30;;
24891;SDS011;12954;50.688;10.908;2022-08-04T11:32:45;1.65;;;1.30;;
24891;SDS011;12954;50.688;10.908;2022-08-04T11:35:25;2.35;;;1.33;;
24891;SDS011;12954;50.688;10.908;2022-08-04T11:38:01;2.42;;;1.13;;
24891;SDS011;12954;50.688;10.908;2022-08-04T11:40:36;2.28;;;1.20;;
24891;SDS011;12954;50.688;10.908;2022-08-04T11:43:35;2.10;;;1.50;;
24891;SDS011;12954;50.688;10.908;2022-08-04T11:46:30;2.35;;;1.30;;
24891;SDS011;12954;50.688;10.908;2022-08-04T11:49:06;2.60;;;1.35;;
24891;SDS011;12954;50.688;10.908;2022-08-04T11:51:38;5.43;;;3.45;;
24891;SDS011;12954;50.688;10.908;2022-08-04T11:54:08;1.85;;;1.50;;
24891;SDS011;12954;50.688;10.908;2022-08-04T11:56:39;2.22;;;2.03;;
24891;SDS011;12954;50.688;10.908;2022-08-04T11:59:08;5.07;;;1.60;;
24891;SDS011;12954;50.688;10.908;2022-08-04T12:01:40;1.77;;;1.15;;
24891;SDS011;12954;50.688;10.908;2022-08-04T12:04:26;1.60;;;1.40;;
24891;SDS011;12954;50.688;10.908;2022-08-04T12:07:04;1.55;;;1.23;;
24891;SDS011;12954;50.688;10.908;2022-08-04T12:10:08;3.55;;;1.30;;
24891;SDS011;12954;50.688;10.908;2022-08-04T12:13:02;1.50;;;1.38;;
24891;SDS011;12954;50.688;10.908;2022-08-04T12:15:39;1.52;;;1.38;;
24891;SDS011;12954;50.688;10.908;2022-08-04T12:18:19;1.20;;;1.10;;
24891;SDS011;12954;50.688;10.908;2022-08-04T12:20:54;7.55;;;1.52;;
24891;SDS011;12954;50.688;10.908;2022-08-04T12:23:28;2.28;;;1.27;;
24891;SDS011;12954;50.688;10.908;2022-08-04T12:26:01;3.25;;;1.15;;
24891;SDS011;12954;50.688;10.908;2022-08-04T12:28:33;2.33;;;1.42;;
24891;SDS011;12954;50.688;10.908;2022-08-04T12:31:25;1.92;;;1.20;;
24891;SDS011;12954;50.688;10.908;2022-08-04T12:33:57;2.20;;;1.52;;
24891;SDS011;12954;50.688;10.908;2022-08-04T12:36:34;2.38;;;1.10;;
24891;SDS011;12954;50.688;10.908;2022-08-04T12:39:08;2.88;;;1.30;;
24891;SDS011;12954;50.688;10.908;2022-08-04T12:41:47;1.65;;;1.10;;
24891;SDS011;12954;50.688;10.908;2022-08-04T12:44:24;1.20;;;1.10;;
24891;SDS011;12954;50.688;10.908;2022-08-04T12:47:04;1.35;;;1.13;;
24891;SDS011;12954;50.688;10.908;2022-08-04T12:49:56;1.20;;;1.10;;
24891;SDS011;12954;50.688;10.908;2022-08-04T12:52:32;1.45;;;1.33;;
24891;SDS011;12954;50.688;10.908;2022-08-04T12:55:28;1.75;;;1.15;;
24891;SDS011;12954;50.688;10.908;2022-08-04T12:58:00;4.17;;;3.33;;
24891;SDS011;12954;50.688;10.908;2022-08-04T13:00:32;2.53;;;1.40;;
24891;SDS011;12954;50.688;10.908;2022-08-04T13:03:08;2.03;;;1.20;;
24891;SDS011;12954;50.688;10.908;2022-08-04T13:05:39;2.15;;;1.08;;
24891;SDS011;12954;50.688;10.908;2022-08-04T13:08:10;3.33;;;1.00;;
24891;SDS011;12954;50.688;10.908;2022-08-04T13:10:41;1.60;;;1.10;;
24891;SDS011;12954;50.688;10.908;2022-08-04T13:13:15;1.40;;;1.15;;
24891;SDS011;12954;50.688;10.908;2022-08-04T13:15:54;2.88;;;1.20;;
24891;SDS011;12954;50.688;10.908;2022-08-04T13:18:25;2.40;;;1.20;;
24891;SDS011;12954;50.688;10.908;2022-08-04T13:21:06;2.05;;;1.20;;
24891;SDS011;12954;50.688;10.908;2022-08-04T13:23:50;1.50;;;1.40;;
24891;SDS011;12954;50.688;10.908;2022-08-04T13:26:36;2.35;;;1.70;;
24891;SDS011;12954;50.688;10.908;2022-08-04T13:29:33;1.40;;;1.30;;
24891;SDS011;12954;50.688;10.908;2022-08-04T13:32:25;4.03;;;1.40;;
24891;SDS011;12954;50.688;10.908;2022-08-04T13:34:56;2.08;;;1.30;;
24891;SDS011;12954;50.688;10.908;2022-08-04T13:37:29;2.13;;;1.40;;
24891;SDS011;12954;50.688;10.908;2022-08-04T13:40:02;3.25;;;1.38;;
24891;SDS011;12954;50.688;10.908;2022-08-04T13:42:33;1.38;;;1.27;;
24891;SDS011;12954;50.688;10.908;2022-08-04T13:45:05;2.70;;;1.20;;
24891;SDS011;12954;50.688;10.908;2022-08-04T13:47:35;4.22;;;2.10;;
24891;SDS011;12954;50.688;10.908;2022-08-04T13:50:14;2.53;;;1.35;;
24891;SDS011;12954;50.688;10.908;2022-08-04T13:52:45;3.40;;;1.98;;
24891;SDS011;12954;50.688;10.908;2022-08-04T13:55:19;1.17;;;1.00;;
24891;SDS011;12954;50.688;10.908;2022-08-04T13:57:52;2.70;;;1.40;;
24891;SDS011;12954;50.688;10.908;2022-08-04T14:00:24;1.60;;;1.20;;
24891;SDS011;12954;50.688;10.908;2022-08-04T14:02:58;1.70;;;1.33;;
24891;SDS011;12954;50.688;10.908;2022-08-04T14:06:06;1.17;;;1.08;;
24891;SDS011;12954;50.688;10.908;2022-08-04T14:08:42;1.42;;;1.33;;
24891;SDS011;12954;50.688;10.908;2022-08-04T14:11:18;3.15;;;1.27;;
24891;SDS011;12954;50.688;10.908;2022-08-04T14:14:12;2.17;;;1.70;;
24891;SDS011;12954;50.688;10.908;2022-08-04T14:16:58;8.13;;;1.70;;
24891;SDS011;12954;50.688;10.908;2022-08-04T14:19:28;2.15;;;1.33;;
24891;SDS011;12954;50.688;10.908;2022-08-04T14:22:26;1.58;;;1.38;;
24891;SDS011;12954;50.688;10.908;2022-08-04T14:25:00;3.75;;;1.70;;
24891;SDS011;12954;50.688;10.908;2022-08-04T14:27:41;2.30;;;1.23;;
24891;SDS011;12954;50.688;10.908;2022-08-04T14:30:21;1.58;;;1.30;;
24891;SDS011;12954;50.688;10.908;2022-08-04T14:32:53;1.38;;;1.27;;
24891;SDS011;12954;50.688;10.908;2022-08-04T14:35:23;1.67;;;1.13;;
24891;SDS011;12954;50.688;10.908;2022-08-04T14:38:12;2.17;;;1.40;;
24891;SDS011;12954;50.688;10.908;2022-08-04T14:40:41;1.92;;;1.30;;
24891;SDS011;12954;50.688;10.908;2022-08-04T14:43:16;2.42;;;1.42;;
24891;SDS011;12954;50.688;10.908;2022-08-04T14:45:45;1.67;;;1.40;;
24891;SDS011;12954;50.688;10.908;2022-08-04T14:48:20;3.20;;;1.20;;
24891;SDS011;12954;50.688;10.908;2022-08-04T14:50:50;2.40;;;2.05;;
24891;SDS011;12954;50.688;10.908;2022-08-04T14:53:20;2.45;;;1.40;;
24891;SDS011;12954;50.688;10.908;2022-08-04T14:55:53;1.52;;;1.00;;
24891;SDS011;12954;50.688;10.908;2022-08-04T14:58:25;1.98;;;1.40;;
24891;SDS011;12954;50.688;10.908;2022-08-04T15:01:04;2.50;;;1.60;;
24891;SDS011;12954;50.688;10.908;2022-08-04T15:03:38;2.88;;;1.40;;
24891;SDS011;12954;50.688;10.908;2022-08-04T15:06:16;1.92;;;1.40;;
24891;SDS011;12954;50.688;10.908;2022-08-04T15:08:48;1.58;;;1.42;;
24891;SDS011;12954;50.688;10.908;2022-08-04T15:11:17;3.08;;;1.40;;
24891;SDS011;12954;50.688;10.908;2022-08-04T15:13:51;3.80;;;1.20;;
24891;SDS011;12954;50.688;10.908;2022-08-04T15:16:20;1.52;;;1.38;;
24891;SDS011;12954;50.688;10.908;2022-08-04T15:18:49;2.28;;;1.27;;
24891;SDS011;12954;50.688;10.908;2022-08-04T15:23:51;1.90;;;1.20;;
24891;SDS011;12954;50.688;10.908;2022-08-04T15:26:22;2.08;;;1.50;;
24891;SDS011;12954;50.688;10.908;2022-08-04T15:28:59;2.53;;;1.20;;
24891;SDS011;12954;50.688;10.908;2022-08-04T15:31:35;2.13;;;1.30;;
24891;SDS011;12954;50.688;10.908;2022-08-04T15:36:54;1.52;;;1.30;;
24891;SDS011;12954;50.688;10.908;2022-08-04T15:39:30;1.40;;;1.30;;
24891;SDS011;12954;50.688;10.908;2022-08-04T15:42:11;2.95;;;1.20;;
24891;SDS011;12954;50.688;10.908;2022-08-04T15:45:01;2.65;;;2.10;;
24891;SDS011;12954;50.688;10.908;2022-08-04T15:47:32;3.42;;;1.27;;
24891;SDS011;12954;50.688;10.908;2022-08-04T15:50:01;5.28;;;2.08;;
24891;SDS011;12954;50.688;10.908;2022-08-04T15:55:39;1.85;;;1.70;;
24891;SDS011;12954;50.688;10.908;2022-08-04T15:58:10;3.28;;;1.80;;
24891;SDS011;12954;50.688;10.908;2022-08-04T16:03:44;2.67;;;1.50;;
24891;SDS011;12954;50.688;10.908;2022-08-04T16:06:41;1.73;;;1.20;;
24891;SDS011;12954;50.688;10.908;2022-08-04T16:09:20;3.10;;;1.30;;
24891;SDS011;12954;50.688;10.908;2022-08-04T16:12:10;3.05;;;1.58;;
24891;SDS011;12954;50.688;10.908;2022-08-04T16:15:35;3.58;;;1.45;;
24891;SDS011;12954;50.688;10.908;2022-08-04T16:18:04;2.75;;;1.10;;
24891;SDS011;12954;50.688;10.908;2022-08-04T16:20:53;4.95;;;1.60;;
24891;SDS011;12954;50.688;10.908;2022-08-04T16:23:38;2.47;;;1.40;;
24891;SDS011;12954;50.688;10.908;2022-08-04T16:29:25;2.55;;;1.20;;
24891;SDS011;12954;50.688;10.908;2022-08-04T16:32:16;1.30;;;1.20;;
24891;SDS011;12954;50.688;10.908;2022-08-04T16:34:48;2.88;;;1.20;;
24891;SDS011;12954;50.688;10.908;2022-08-04T16:37:24;2.67;;;1.40;;
24891;SDS011;12954;50.688;10.908;2022-08-04T16:43:01;2.13;;;1.27;;
24891;SDS011;12954;50.688;10.908;2022-08-04T16:45:45;1.40;;;1.13;;
24891;SDS011;12954;50.688;10.908;2022-08-04T16:48:16;2.15;;;1.70;;
24891;SDS011;12954;50.688;10.908;2022-08-04T16:50:49;3.85;;;2.20;;